Terminal Aerodrome Forecast
Issued by NWS Medford, OR

Home | Current Version | Previous Version | Text Only | Print | Product List | Glossary On
Versions: 1 2 3 4 5 6 7 8 9 10 11 12 13
000
FTUS46 KMFR 022337
TAFMFR
TAF
KMFR 022337Z 0300/0324 32012KT P6SM BKN060
     FM031000 VRB03KT P6SM BKN040
     FM032200 30010KT P6SM FEW030=

USA.gov is the U.S. government's official web portal to all federal, state and local government web resources and services.